createdAt,value
2023-04-02T00:00:36.010Z,10.00
2023-04-02T00:03:08.760Z,12.20
2023-04-02T00:05:51.052Z,13.10
2023-04-02T00:08:38.959Z,11.50
2023-04-02T00:11:07.714Z,10.20
2023-04-02T00:13:46.953Z,10.50
2023-04-02T00:16:22.155Z,10.40
2023-04-02T00:18:52.645Z,10.50
2023-04-02T00:21:24.288Z,10.30
2023-04-02T00:23:54.100Z,14.20
2023-04-02T00:26:35.379Z,12.10
2023-04-02T00:29:06.879Z,12.10
2023-04-02T00:31:38.487Z,15.40
2023-04-02T00:34:08.001Z,13.70
2023-04-02T00:36:36.612Z,9.80
2023-04-02T00:39:11.252Z,9.80
2023-04-02T00:41:46.828Z,10.40
2023-04-02T00:44:22.170Z,11.10
2023-04-02T00:46:50.924Z,9.50
2023-04-02T00:49:32.787Z,11.30
2023-04-02T00:52:03.234Z,11.30
2023-04-02T00:54:33.436Z,10.70
2023-04-02T00:57:01.760Z,10.80
2023-04-02T00:59:35.927Z,11.70
2023-04-02T01:02:30.781Z,10.50
2023-04-02T01:05:01.204Z,11.00
2023-04-02T01:07:49.366Z,10.00
2023-04-02T01:10:29.522Z,9.60
2023-04-02T01:13:26.204Z,9.90
2023-04-02T01:16:24.235Z,13.10
2023-04-02T01:19:36.587Z,12.00
2023-04-02T01:22:31.385Z,12.00
2023-04-02T01:24:59.560Z,10.10
2023-04-02T01:27:30.039Z,11.10
2023-04-02T01:36:15.045Z,10.00
2023-04-02T01:41:29.801Z,10.40
2023-04-02T01:44:07.514Z,12.10
2023-04-02T01:46:38.935Z,12.20
2023-04-02T01:49:16.430Z,11.20
2023-04-02T01:51:46.652Z,10.60
2023-04-02T01:54:18.133Z,11.80
2023-04-02T01:56:47.319Z,13.50
2023-04-02T01:59:18.783Z,13.50
2023-04-02T02:01:57.665Z,10.50
2023-04-02T02:04:26.478Z,13.80
2023-04-02T02:06:58.714Z,11.30
2023-04-02T02:09:33.032Z,10.50
2023-04-02T02:12:02.910Z,11.50
2023-04-02T02:14:31.465Z,11.10
2023-04-02T02:17:02.485Z,10.60
2023-04-02T02:19:37.123Z,11.00
2023-04-02T02:22:25.201Z,10.30
2023-04-02T02:24:55.517Z,11.00
2023-04-02T02:27:23.786Z,11.10
2023-04-02T02:30:12.852Z,13.10
2023-04-02T02:33:02.822Z,12.90
2023-04-02T02:35:49.171Z,12.30
2023-04-02T02:38:27.071Z,14.50
2023-04-02T02:41:00.366Z,12.50
2023-04-02T02:43:28.613Z,12.40
2023-04-02T02:45:57.277Z,11.90
2023-04-02T02:48:40.953Z,14.30
2023-04-02T02:51:19.570Z,11.60
2023-04-02T02:53:53.295Z,14.20
2023-04-02T02:58:52.271Z,15.30
2023-04-02T03:01:29.555Z,12.00
2023-04-02T03:03:59.398Z,11.20
2023-04-02T03:06:28.062Z,11.20
2023-04-02T03:09:19.379Z,11.00
2023-04-02T03:11:56.472Z,9.80
2023-04-02T03:14:31.727Z,10.80
2023-04-02T03:17:05.251Z,11.20
2023-04-02T03:22:39.962Z,9.30
2023-04-02T03:25:22.097Z,14.50
2023-04-02T03:27:52.088Z,12.30
2023-04-02T03:30:39.002Z,13.00
2023-04-02T03:33:19.460Z,10.90
2023-04-02T03:35:49.647Z,12.60
2023-04-02T03:38:33.137Z,10.70
2023-04-02T03:41:15.731Z,11.40
2023-04-02T03:43:47.742Z,11.30
2023-04-02T03:46:38.750Z,10.00
2023-04-02T03:49:13.711Z,11.80
2023-04-02T03:52:06.825Z,9.90
2023-04-02T03:54:35.806Z,10.80
2023-04-02T03:57:04.105Z,9.20
2023-04-02T04:00:04.848Z,9.10
2023-04-02T04:02:53.507Z,8.70
2023-04-02T04:05:34.262Z,10.10
2023-04-02T04:08:08.172Z,9.20
2023-04-02T04:10:37.081Z,9.30
2023-04-02T04:13:09.913Z,9.50
2023-04-02T04:16:03.464Z,9.90
2023-04-02T04:18:42.749Z,8.70
2023-04-02T04:21:38.952Z,8.90
2023-04-02T04:24:23.018Z,9.00
2023-04-02T04:27:04.154Z,10.10
2023-04-02T04:29:48.300Z,7.90
2023-04-02T04:39:57.325Z,8.90
2023-04-02T04:42:28.727Z,9.50
2023-04-02T04:45:04.244Z,7.60
2023-04-02T04:47:37.321Z,9.40
2023-04-02T04:50:12.998Z,11.20
2023-04-02T04:52:44.654Z,10.20
2023-04-02T04:55:29.310Z,8.60
2023-04-02T04:58:26.086Z,11.40
2023-04-02T05:01:00.819Z,10.40
2023-04-02T05:03:39.731Z,8.30
2023-04-02T05:06:39.917Z,8.90
2023-04-02T05:09:15.000Z,10.40
2023-04-02T05:11:58.187Z,11.40
2023-04-02T05:14:31.905Z,8.70
2023-04-02T05:17:06.103Z,10.20
2023-04-02T05:19:44.615Z,10.80
2023-04-02T05:22:41.379Z,9.50
2023-04-02T05:25:23.405Z,8.20
2023-04-02T05:28:08.163Z,11.30
2023-04-02T05:30:46.912Z,8.60
2023-04-02T05:33:27.692Z,9.50
2023-04-02T05:36:08.663Z,9.00
2023-04-02T05:38:45.008Z,10.50
2023-04-02T05:41:27.772Z,10.40
2023-04-02T05:44:28.429Z,7.90
2023-04-02T05:46:58.525Z,11.60
2023-04-02T05:49:35.690Z,10.70
2023-04-02T05:52:04.226Z,9.60
2023-04-02T05:54:44.781Z,9.50
2023-04-02T05:57:16.233Z,7.40
2023-04-02T05:59:58.338Z,8.80
2023-04-02T06:02:37.153Z,7.90
2023-04-02T06:05:17.065Z,7.70
2023-04-02T06:07:50.980Z,9.00
2023-04-02T06:10:24.755Z,8.60
2023-04-02T06:12:55.057Z,8.10
2023-04-02T06:15:24.224Z,10.10
2023-04-02T06:18:02.052Z,9.90
2023-04-02T06:20:31.577Z,8.70
2023-04-02T06:23:18.577Z,10.20
2023-04-02T06:25:54.510Z,8.40
2023-04-02T06:28:31.024Z,8.80
2023-04-02T06:31:03.529Z,9.00
2023-04-02T06:33:37.293Z,8.00
2023-04-02T06:36:06.316Z,7.80
2023-04-02T06:38:36.313Z,7.60
2023-04-02T06:41:13.267Z,7.70
2023-04-02T06:44:07.578Z,8.00
2023-04-02T06:47:01.093Z,7.20
2023-04-02T06:49:43.017Z,6.80
2023-04-02T06:52:27.027Z,7.20
2023-04-02T06:54:55.314Z,7.00
2023-04-02T06:57:24.153Z,6.50
2023-04-02T06:59:55.231Z,6.40
2023-04-02T07:02:34.694Z,5.40
2023-04-02T07:05:09.283Z,6.00
2023-04-02T07:07:41.364Z,5.50
2023-04-02T07:10:12.511Z,5.30
2023-04-02T07:12:41.136Z,5.70
2023-04-02T07:15:14.854Z,5.40
2023-04-02T07:17:48.937Z,6.10
2023-04-02T07:20:24.567Z,5.70
2023-04-02T07:22:53.967Z,7.50
2023-04-02T07:25:22.930Z,5.70
2023-04-02T07:27:52.463Z,5.80
2023-04-02T07:30:20.724Z,6.20
2023-04-02T07:32:50.780Z,6.30
2023-04-02T07:35:19.321Z,6.40
2023-04-02T07:37:49.275Z,6.30
2023-04-02T07:40:20.752Z,5.70
2023-04-02T07:42:49.080Z,6.80
2023-04-02T07:45:17.965Z,6.60
2023-04-02T07:47:46.510Z,7.30
2023-04-02T07:50:15.137Z,8.10
2023-04-02T07:52:43.930Z,6.50
2023-04-02T07:55:18.646Z,7.10
2023-04-02T07:57:52.270Z,7.40
2023-04-02T08:00:21.046Z,7.60
2023-04-02T08:02:51.766Z,9.90
2023-04-02T08:05:20.669Z,7.00
2023-04-02T08:07:56.145Z,6.20
2023-04-02T08:10:24.555Z,5.90
2023-04-02T08:12:57.370Z,6.40
2023-04-02T08:15:25.992Z,6.60
2023-04-02T08:17:54.455Z,5.50
2023-04-02T08:20:23.442Z,7.30
2023-04-02T08:22:52.067Z,7.50
2023-04-02T08:25:20.920Z,5.60
2023-04-02T08:27:49.810Z,7.70
2023-04-02T08:30:18.501Z,7.60
2023-04-02T08:32:47.842Z,6.70
2023-04-02T08:35:17.541Z,7.60
2023-04-02T08:37:47.543Z,6.80
2023-04-02T08:40:25.953Z,7.70
2023-04-02T08:43:15.956Z,8.20
2023-04-02T08:46:06.274Z,7.40
2023-04-02T08:48:36.374Z,6.20
2023-04-02T08:51:06.219Z,10.30
2023-04-02T08:53:37.018Z,5.80
2023-04-02T08:56:34.165Z,7.00
2023-04-02T08:59:04.014Z,7.80
2023-04-02T09:01:48.581Z,5.10
2023-04-02T09:04:19.114Z,6.60
2023-04-02T09:06:47.746Z,7.80
2023-04-02T09:09:16.365Z,8.00
2023-04-02T09:11:52.361Z,9.10
2023-04-02T09:14:43.362Z,6.80
2023-04-02T09:17:19.675Z,9.90
2023-04-02T09:19:51.431Z,7.50
2023-04-02T09:22:32.572Z,7.50
2023-04-02T09:25:05.090Z,7.20
2023-04-02T09:27:36.826Z,7.40
2023-04-02T09:30:15.266Z,7.90
2023-04-02T09:32:51.378Z,7.40
2023-04-02T09:35:26.881Z,7.70
2023-04-02T09:38:08.055Z,8.60
2023-04-02T09:40:49.653Z,9.10
2023-04-02T09:43:22.551Z,7.30
2023-04-02T09:45:59.503Z,7.50
2023-04-02T09:48:50.130Z,6.90
2023-04-02T09:51:23.780Z,7.40
2023-04-02T09:56:38.531Z,8.20
2023-04-02T09:59:13.374Z,7.80
2023-04-02T10:01:47.900Z,9.00
2023-04-02T10:04:44.809Z,7.40
2023-04-02T10:07:34.605Z,9.80
2023-04-02T10:10:30.803Z,9.70
2023-04-02T10:13:07.246Z,9.60
2023-04-02T10:15:42.988Z,10.90
2023-04-02T10:18:31.804Z,9.50
2023-04-02T10:21:01.289Z,8.30
2023-04-02T10:23:30.116Z,8.00
2023-04-02T10:26:29.287Z,7.90
2023-04-02T10:29:21.190Z,7.80
2023-04-02T10:31:58.724Z,7.40
2023-04-02T10:34:31.551Z,8.50
2023-04-02T10:37:03.597Z,8.10
2023-04-02T10:39:38.455Z,9.90
2023-04-02T10:42:33.040Z,12.80
2023-04-02T10:45:16.974Z,10.10
2023-04-02T10:48:00.568Z,10.40
2023-04-02T10:51:01.841Z,11.10
2023-04-02T10:53:34.959Z,10.20
2023-04-02T10:56:05.608Z,9.80
2023-04-02T10:58:35.410Z,11.10
2023-04-02T11:01:08.479Z,13.10
2023-04-02T11:03:41.701Z,12.20
2023-04-02T11:06:26.128Z,14.30
2023-04-02T11:08:58.278Z,13.50
2023-04-02T11:11:47.068Z,12.00
2023-04-02T11:14:21.477Z,13.70
2023-04-02T11:16:50.254Z,12.20
2023-04-02T11:19:18.572Z,12.70
2023-04-02T11:22:13.750Z,12.60
2023-04-02T11:24:49.879Z,12.40
2023-04-02T11:27:21.908Z,13.30
2023-04-02T11:30:06.510Z,13.60
2023-04-02T11:32:47.389Z,15.30
2023-04-02T11:35:37.221Z,14.60
2023-04-02T11:38:12.146Z,15.90
2023-04-02T11:40:55.168Z,12.80
2023-04-02T11:43:33.214Z,11.20
2023-04-02T11:46:05.135Z,12.20
2023-04-02T11:48:36.237Z,16.40
2023-04-02T11:51:23.339Z,14.40
2023-04-02T11:53:55.058Z,13.40
2023-04-02T11:56:38.385Z,13.10
2023-04-02T11:59:15.746Z,15.20
2023-04-02T12:02:04.971Z,12.00
2023-04-02T12:04:48.553Z,13.20
2023-04-02T12:09:56.714Z,12.60
2023-04-02T12:12:29.082Z,15.70
2023-04-02T12:14:58.498Z,14.00
2023-04-02T12:17:30.791Z,14.30
2023-04-02T12:20:09.298Z,16.80
2023-04-02T12:22:51.993Z,16.30
2023-04-02T12:25:30.033Z,16.30
2023-04-02T12:28:14.396Z,15.80
2023-04-02T12:30:43.549Z,15.30
2023-04-02T12:33:33.596Z,14.90
2023-04-02T12:36:02.380Z,16.70
2023-04-02T12:38:34.231Z,16.60
2023-04-02T12:41:06.795Z,17.50
2023-04-02T12:43:36.884Z,17.90
2023-04-02T12:50:55.730Z,16.40
2023-04-02T12:53:27.199Z,15.20
2023-04-02T12:55:55.497Z,13.80
2023-04-02T12:58:51.312Z,14.60
2023-04-02T13:01:24.792Z,12.20
2023-04-02T13:04:07.242Z,13.20
2023-04-02T13:06:36.596Z,10.00
2023-04-02T13:09:06.672Z,9.70
2023-04-02T13:11:36.698Z,8.10
2023-04-02T13:14:05.902Z,7.90
2023-04-02T13:16:38.190Z,7.80
2023-04-02T13:19:30.371Z,6.90
2023-04-02T13:22:02.243Z,7.10
2023-04-02T13:24:31.930Z,9.60
2023-04-02T13:27:01.285Z,8.00
2023-04-02T13:29:29.408Z,7.30
2023-04-02T13:32:00.911Z,6.20
2023-04-02T13:34:29.733Z,6.20
2023-04-02T13:37:03.423Z,8.00
2023-04-02T13:39:32.648Z,6.20
2023-04-02T13:42:02.484Z,6.10
2023-04-02T13:44:31.830Z,9.90
2023-04-02T13:47:00.129Z,6.30
2023-04-02T13:49:28.285Z,9.10
2023-04-02T13:54:01.487Z,7.30
2023-04-02T13:56:30.052Z,8.40
2023-04-02T13:58:58.230Z,8.00
2023-04-02T14:01:27.453Z,5.20
2023-04-02T14:03:58.163Z,4.20
2023-04-02T14:06:52.606Z,4.30
2023-04-02T14:09:24.225Z,6.00
2023-04-02T14:12:08.574Z,5.20
2023-04-02T14:17:34.562Z,4.60
2023-04-02T14:20:23.622Z,4.70
2023-04-02T14:23:03.327Z,5.30
2023-04-02T14:25:44.421Z,5.40
2023-04-02T14:29:04.849Z,6.70
2023-04-02T14:32:12.815Z,14.60
2023-04-02T14:34:53.911Z,9.60
2023-04-02T14:37:40.717Z,9.50
2023-04-02T14:40:23.535Z,8.30
2023-04-02T14:42:55.098Z,8.80
2023-04-02T14:45:35.167Z,9.80
2023-04-02T14:48:30.148Z,12.40
2023-04-02T14:51:08.555Z,9.60
2023-04-02T14:53:46.734Z,9.00
2023-04-02T14:56:15.177Z,8.40
2023-04-02T14:58:48.689Z,8.40
2023-04-02T15:01:28.153Z,9.30
2023-04-02T15:04:05.011Z,14.80
2023-04-02T15:06:38.256Z,11.00
2023-04-02T15:09:28.345Z,15.10
2023-04-02T15:12:27.853Z,14.60
2023-04-02T15:15:01.027Z,12.40
2023-04-02T15:17:31.208Z,11.50
2023-04-02T15:20:08.866Z,11.30
2023-04-02T15:23:04.228Z,11.00
2023-04-02T15:26:01.846Z,10.00
2023-04-02T15:28:59.666Z,11.00
2023-04-02T15:31:28.469Z,10.70
2023-04-02T15:34:32.431Z,11.90
2023-04-02T15:37:19.020Z,12.90
2023-04-02T15:40:09.227Z,14.90
2023-04-02T15:42:44.004Z,12.70
2023-04-02T15:45:12.034Z,13.90
2023-04-02T15:47:47.960Z,13.20
2023-04-02T15:50:52.522Z,17.20
2023-04-02T15:53:32.357Z,15.80
2023-04-02T15:56:07.782Z,14.30
2023-04-02T15:58:57.911Z,14.30
2023-04-02T16:01:38.241Z,13.40
2023-04-02T16:04:18.164Z,11.30
2023-04-02T16:07:14.452Z,10.70
2023-04-02T16:09:58.140Z,12.80
2023-04-02T16:12:27.607Z,14.80
2023-04-02T16:15:25.259Z,13.50
2023-04-02T16:18:03.490Z,15.00
2023-04-02T16:20:35.299Z,13.30
2023-04-02T16:23:29.825Z,16.00
2023-04-02T16:26:27.603Z,16.50
2023-04-02T16:29:24.234Z,15.60
2023-04-02T16:32:15.866Z,15.80
2023-04-02T16:35:41.016Z,15.00
2023-04-02T16:38:17.997Z,16.80
2023-04-02T16:41:11.018Z,18.80
2023-04-02T16:43:49.740Z,20.10
2023-04-02T16:47:06.693Z,18.70
2023-04-02T16:49:44.660Z,17.90
2023-04-02T16:52:43.362Z,19.80
2023-04-02T16:55:14.701Z,19.60
2023-04-02T16:57:58.234Z,19.30
2023-04-02T17:03:11.758Z,19.50
2023-04-02T17:05:43.416Z,19.10
2023-04-02T17:08:12.049Z,18.90
2023-04-02T17:11:34.611Z,18.10
2023-04-02T17:14:15.644Z,19.20
2023-04-02T17:16:46.068Z,18.40
2023-04-02T17:19:15.911Z,22.90
2023-04-02T17:21:47.241Z,24.60
2023-04-02T17:24:24.580Z,22.40
2023-04-02T17:27:01.632Z,21.90
2023-04-02T17:29:35.432Z,19.90
2023-04-02T17:32:04.146Z,30.70
2023-04-02T17:34:32.653Z,33.70
2023-04-02T17:37:28.946Z,57.00
2023-04-02T17:40:08.622Z,59.60
2023-04-02T17:42:55.818Z,53.40
2023-04-02T17:45:33.358Z,37.30
2023-04-02T17:48:12.954Z,26.80
2023-04-02T17:51:25.751Z,18.90
2023-04-02T17:53:58.800Z,15.80
2023-04-02T17:56:40.251Z,17.60
2023-04-02T17:59:34.555Z,18.30
2023-04-02T18:02:20.155Z,17.90
2023-04-02T18:07:40.431Z,18.10
2023-04-02T18:10:30.451Z,22.50
2023-04-02T18:13:04.641Z,18.50
2023-04-02T18:15:45.750Z,19.80
2023-04-02T18:18:19.963Z,18.90
2023-04-02T18:20:56.908Z,20.20
2023-04-02T18:23:54.709Z,26.90
2023-04-02T18:26:29.595Z,25.40
2023-04-02T18:29:24.221Z,26.30
2023-04-02T18:32:22.105Z,19.50
2023-04-02T18:35:02.349Z,17.00
2023-04-02T18:37:41.163Z,21.10
2023-04-02T18:40:35.969Z,14.60
2023-04-02T18:43:25.031Z,14.00
2023-04-02T18:45:57.417Z,12.70
2023-04-02T18:48:46.898Z,15.10
2023-04-02T18:51:26.468Z,15.90
2023-04-02T18:54:00.039Z,12.00
2023-04-02T18:59:12.060Z,13.30
2023-04-02T19:04:26.737Z,10.70
2023-04-02T19:07:01.321Z,15.90
2023-04-02T19:09:32.183Z,10.10
2023-04-02T19:12:00.646Z,11.50
2023-04-02T19:14:35.600Z,11.30
2023-04-02T19:17:10.432Z,12.20
2023-04-02T19:20:00.150Z,14.30
2023-04-02T19:22:52.865Z,10.40
2023-04-02T19:34:03.118Z,7.00
2023-04-02T19:36:30.039Z,6.70
2023-04-02T19:39:39.060Z,7.10
2023-04-02T19:42:21.231Z,8.20
2023-04-02T19:44:49.777Z,6.90
2023-04-02T19:47:16.949Z,7.10
2023-04-02T19:49:44.097Z,7.50
2023-04-02T19:52:11.520Z,6.80
2023-04-02T19:54:39.183Z,6.30
2023-04-02T19:57:06.394Z,6.20
2023-04-02T19:59:35.733Z,5.50
2023-04-02T20:02:06.217Z,6.00
2023-04-02T20:04:33.533Z,6.40
2023-04-02T20:07:02.187Z,7.60
2023-04-02T20:09:29.372Z,5.10
2023-04-02T20:11:56.312Z,5.80
2023-04-02T20:14:23.362Z,6.40
2023-04-02T20:16:51.746Z,6.30
2023-04-02T20:19:18.889Z,6.00
2023-04-02T20:21:48.712Z,5.90
2023-04-02T20:24:15.953Z,6.00
2023-04-02T20:26:42.830Z,8.40
2023-04-02T20:29:13.950Z,5.80
2023-04-02T20:31:41.414Z,6.20
2023-04-02T20:34:08.902Z,6.60
2023-04-02T20:36:37.247Z,6.10
2023-04-02T20:39:07.466Z,6.00
2023-04-02T20:41:36.050Z,6.10
2023-04-02T20:44:04.846Z,6.60
2023-04-02T20:46:32.442Z,7.70
2023-04-02T20:49:01.441Z,7.60
2023-04-02T20:51:28.224Z,7.60
2023-04-02T20:53:55.706Z,6.60
2023-04-02T20:56:27.505Z,6.90
2023-04-02T20:58:54.920Z,6.10
2023-04-02T21:01:23.448Z,7.60
2023-04-02T21:03:58.722Z,6.20
2023-04-02T21:06:28.002Z,5.90
2023-04-02T21:08:55.328Z,7.70
2023-04-02T21:11:23.392Z,5.60
2023-04-02T21:13:51.553Z,6.60
2023-04-02T21:16:21.120Z,7.40
2023-04-02T21:18:50.719Z,7.80
2023-04-02T21:21:17.930Z,8.50
2023-04-02T21:23:44.900Z,7.70
2023-04-02T21:26:16.181Z,6.90
2023-04-02T21:28:44.654Z,8.60
2023-04-02T21:31:22.143Z,7.40
2023-04-02T21:33:51.602Z,6.00
2023-04-02T21:36:27.051Z,5.70
2023-04-02T21:38:56.042Z,5.90
2023-04-02T21:41:23.912Z,7.40
2023-04-02T21:43:50.953Z,7.20
2023-04-02T21:46:21.895Z,5.70
2023-04-02T21:48:49.831Z,8.00
2023-04-02T21:51:22.039Z,6.50
2023-04-02T21:53:51.229Z,17.40
2023-04-02T21:56:19.199Z,8.90
2023-04-02T21:58:46.207Z,9.50
2023-04-02T22:01:23.931Z,8.40
2023-04-02T22:03:56.680Z,8.10
2023-04-02T22:06:25.430Z,7.50
2023-04-02T22:08:54.343Z,6.70
2023-04-02T22:11:24.305Z,6.90
2023-04-02T22:13:52.012Z,7.20
2023-04-02T22:16:21.245Z,7.40
2023-04-02T22:18:52.181Z,8.70
2023-04-02T22:21:20.334Z,7.70
2023-04-02T22:23:51.283Z,7.40
2023-04-02T22:26:20.088Z,8.10
2023-04-02T22:28:46.885Z,9.20
2023-04-02T22:31:16.946Z,7.80
2023-04-02T22:33:44.564Z,10.00
2023-04-02T22:36:12.216Z,7.00
2023-04-02T22:38:42.144Z,8.10
2023-04-02T22:41:12.539Z,8.00
2023-04-02T22:43:41.055Z,7.30
2023-04-02T22:46:08.950Z,9.70
2023-04-02T22:48:40.864Z,10.70
2023-04-02T22:51:09.315Z,7.50
2023-04-02T22:53:36.940Z,9.20
2023-04-02T22:56:08.074Z,10.80
2023-04-02T22:58:36.190Z,9.30
2023-04-02T23:01:07.207Z,8.40
2023-04-02T23:03:36.094Z,8.90
2023-04-02T23:06:06.746Z,8.50
2023-04-02T23:08:34.705Z,8.00
2023-04-02T23:11:03.480Z,9.10
2023-04-02T23:13:32.574Z,9.80
2023-04-02T23:16:03.032Z,8.00
2023-04-02T23:18:34.435Z,9.80
2023-04-02T23:21:01.551Z,10.80
2023-04-02T23:23:28.758Z,8.50
2023-04-02T23:26:03.396Z,11.10
2023-04-02T23:28:30.712Z,10.00
2023-04-02T23:30:59.126Z,10.30
2023-04-02T23:33:26.248Z,8.80
2023-04-02T23:35:53.122Z,10.00
2023-04-02T23:38:24.572Z,12.00
2023-04-02T23:40:52.024Z,12.50
2023-04-02T23:43:18.802Z,12.20
2023-04-02T23:45:49.230Z,10.60
2023-04-02T23:48:16.460Z,10.20
2023-04-02T23:50:44.090Z,10.90
2023-04-02T23:53:11.525Z,11.50
2023-04-02T23:55:39.052Z,11.30
2023-04-02T23:58:05.865Z,10.00
